METAR Data
IDs: Format: Raw Decoded Include TAF

Data at: 1241 UTC 16 Jul 2019

KHOB 161150Z 18008KT 10SM BKN100 24/16 A3004
KHOB 161115Z AUTO 19008KT 10SM CLR 24/16 A3004 RMK AO2
KHOB 161035Z AUTO 17010KT 10SM FEW120 25/16 A3002 RMK AO2
KHOB 161015Z AUTO 17011KT 10SM CLR 25/15 A3002 RMK AO2
KHOB 160855Z AUTO 19008KT 10SM BKN120 25/14 A3002 RMK AO2
KHOB 160735Z AUTO 17009KT 10SM CLR 26/12 A3004 RMK AO2
KHOB 160355Z AUTO 19004KT 10SM CLR 28/09 A3002 RMK AO2
KHOB 160335Z AUTO 16007KT 10SM CLR 29/09 A3002 RMK AO2
KHOB 160255Z AUTO 16006KT 10SM CLR 30/09 A3001 RMK AO2
KHOB 160215Z AUTO 14008KT 10SM CLR 32/09 A2999 RMK AO2
KHOB 160015Z AUTO 15009G17KT 10SM CLR 35/08 A2997 RMK AO2
KHOB 152350Z 15005KT 10SM FEW100 36/08 A2997
KHOB 152250Z 16008KT 10SM FEW100 36/08 A2998
KHOB 152150Z 14006KT 10SM FEW100 36/09 A3000
KHOB 152050Z 14008KT 10SM FEW100 35/10 A3002
KHOB 151950Z 14010KT 10SM FEW090 35/10 A3005
KHOB 151850Z 16008KT 10SM SKC 34/10 A3007
KHOB 151750Z 14007G13KT 10SM FEW090 33/12 A3008
KHOB 151650Z 14011G19KT 10SM SKC 32/12 A3009
KHOB 151550Z 16010KT 10SM SKC 30/13 A3010
KHOB 151450Z 13006KT 10SM SKC 28/12 A3012
KHOB 151350Z 00000KT 10SM SKC 25/12 A3012
KHOB 151250Z 25003KT 220V010 10SM SKC 21/12 A3010
KHOB 151150Z 24003KT 10SM FEW024 19/11 A3009
KHOB 150935Z AUTO 00000KT 10SM CLR 21/10 A3008 RMK AO2
KHOB 150735Z AUTO 15004KT 10SM CLR 22/10 A3010 RMK AO2
KHOB 150415Z AUTO 13005KT 10SM CLR 24/10 A3009 RMK AO2
KHOB 150255Z AUTO 10007KT 10SM CLR 25/09 A3007 RMK AO2
KHOB 150235Z AUTO 10007KT 10SM CLR 26/09 A3007 RMK AO2